createdAt,value
2023-05-13T00:00:55.836Z,10.83
2023-05-13T00:03:22.457Z,10.91
2023-05-13T00:05:49.181Z,10.84
2023-05-13T00:08:16.599Z,10.84
2023-05-13T00:10:43.101Z,10.86
2023-05-13T00:13:09.575Z,10.91
2023-05-13T00:15:36.046Z,10.95
2023-05-13T00:18:02.473Z,10.88
2023-05-13T00:20:29.092Z,10.80
2023-05-13T00:22:55.606Z,10.77
2023-05-13T00:25:22.061Z,10.74
2023-05-13T00:27:48.461Z,10.69
2023-05-13T00:30:17.199Z,10.71
2023-05-13T00:32:43.724Z,10.79
2023-05-13T00:35:12.740Z,10.76
2023-05-13T00:37:39.080Z,10.73
2023-05-13T00:40:06.172Z,10.76
2023-05-13T00:42:32.542Z,10.78
2023-05-13T00:44:58.964Z,10.80
2023-05-13T00:47:27.851Z,10.80
2023-05-13T00:49:54.712Z,10.70
2023-05-13T00:52:21.115Z,10.71
2023-05-13T00:54:52.446Z,10.66
2023-05-13T00:57:18.851Z,10.64
2023-05-13T00:59:45.505Z,10.58
2023-05-13T01:02:34.710Z,10.52
2023-05-13T01:05:32.456Z,10.41
2023-05-13T01:08:26.906Z,10.28
2023-05-13T01:10:57.649Z,10.21
2023-05-13T01:13:27.079Z,10.16
2023-05-13T01:16:38.493Z,10.14
2023-05-13T01:19:32.434Z,10.05
2023-05-13T01:22:01.258Z,10.00
2023-05-13T01:24:27.653Z,9.89
2023-05-13T01:26:58.968Z,9.90
2023-05-13T01:29:25.728Z,9.83
2023-05-13T01:31:53.555Z,9.80
2023-05-13T01:34:22.595Z,9.71
2023-05-13T01:36:49.131Z,9.61
2023-05-13T01:39:18.295Z,9.56
2023-05-13T01:41:44.825Z,9.54
2023-05-13T01:44:11.673Z,9.51
2023-05-13T01:46:39.140Z,9.48
2023-05-13T01:49:07.687Z,9.44
2023-05-13T01:51:37.835Z,9.41
2023-05-13T01:54:05.094Z,9.40
2023-05-13T01:56:34.727Z,9.39
2023-05-13T01:59:03.569Z,9.39
2023-05-13T02:01:30.250Z,9.40
2023-05-13T02:03:59.905Z,9.35
2023-05-13T02:06:27.956Z,9.30
2023-05-13T02:08:54.871Z,9.33
2023-05-13T02:11:26.062Z,9.26
2023-05-13T02:13:52.665Z,9.22
2023-05-13T02:16:20.210Z,9.16
2023-05-13T02:18:46.839Z,9.13
2023-05-13T02:21:13.344Z,9.07
2023-05-13T02:23:40.028Z,9.09
2023-05-13T02:26:06.481Z,9.04
2023-05-13T02:28:32.908Z,8.99
2023-05-13T02:30:59.845Z,8.96
2023-05-13T02:33:26.497Z,8.92
2023-05-13T02:35:52.989Z,8.89
2023-05-13T02:38:19.434Z,8.85
2023-05-13T02:40:45.834Z,8.81
2023-05-13T02:43:12.225Z,8.76
2023-05-13T02:45:40.813Z,8.70
2023-05-13T02:48:11.050Z,8.65
2023-05-13T02:50:41.061Z,8.60
2023-05-13T02:53:09.782Z,8.58
2023-05-13T02:55:36.212Z,8.53
2023-05-13T02:58:02.878Z,8.48
2023-05-13T03:00:32.019Z,8.46
2023-05-13T03:02:58.571Z,8.41
2023-05-13T03:05:25.081Z,8.42
2023-05-13T03:07:51.564Z,8.44
2023-05-13T03:10:23.201Z,8.80
2023-05-13T03:12:49.987Z,8.69
2023-05-13T03:15:19.275Z,8.72
2023-05-13T03:17:50.706Z,8.84
2023-05-13T03:20:19.310Z,8.95
2023-05-13T03:22:45.863Z,9.11
2023-05-13T03:25:14.655Z,9.16
2023-05-13T03:27:41.058Z,9.19
2023-05-13T03:30:08.003Z,9.21
2023-05-13T03:32:35.211Z,9.29
2023-05-13T03:35:01.752Z,9.37
2023-05-13T03:37:28.278Z,9.40
2023-05-13T03:39:54.693Z,9.38
2023-05-13T03:42:23.676Z,9.40
2023-05-13T03:44:51.247Z,9.36
2023-05-13T03:47:18.005Z,9.39
2023-05-13T03:49:44.553Z,9.43
2023-05-13T03:52:13.779Z,9.38
2023-05-13T03:54:40.357Z,9.36
2023-05-13T03:57:08.349Z,9.34
2023-05-13T03:59:34.855Z,9.41
2023-05-13T04:02:03.703Z,9.38
2023-05-13T04:04:32.787Z,9.31
2023-05-13T04:06:59.213Z,9.23
2023-05-13T04:09:25.820Z,9.17
2023-05-13T04:11:52.210Z,9.11
2023-05-13T04:14:19.301Z,9.08
2023-05-13T04:16:45.790Z,9.01
2023-05-13T04:19:12.472Z,9.01
2023-05-13T04:21:41.245Z,9.02
2023-05-13T04:24:07.783Z,9.07
2023-05-13T04:26:37.719Z,9.15
2023-05-13T04:29:04.365Z,9.35
2023-05-13T04:31:32.167Z,9.42
2023-05-13T04:33:58.562Z,9.66
2023-05-13T04:36:24.983Z,9.68
2023-05-13T04:38:51.391Z,9.72
2023-05-13T04:41:17.783Z,9.78
2023-05-13T04:43:44.164Z,9.83
2023-05-13T04:46:10.578Z,9.90
2023-05-13T04:48:37.074Z,9.97
2023-05-13T04:51:08.672Z,10.07
2023-05-13T04:53:35.965Z,10.15
2023-05-13T04:56:02.302Z,10.26
2023-05-13T04:58:31.854Z,10.36
2023-05-13T05:00:58.315Z,10.49
2023-05-13T05:03:24.812Z,10.63
2023-05-13T05:05:54.431Z,10.71
2023-05-13T05:08:21.025Z,10.83
2023-05-13T05:10:47.468Z,10.91
2023-05-13T05:13:13.990Z,10.94
2023-05-13T05:15:41.532Z,11.09
2023-05-13T05:18:08.120Z,11.20
2023-05-13T05:20:34.853Z,11.27
2023-05-13T05:23:01.544Z,11.42
2023-05-13T05:25:28.272Z,11.55
2023-05-13T05:27:57.156Z,11.69
2023-05-13T05:30:23.971Z,11.79
2023-05-13T05:32:52.990Z,11.90
2023-05-13T05:35:19.858Z,12.01
2023-05-13T05:37:46.688Z,12.11
2023-05-13T05:40:13.601Z,12.22
2023-05-13T05:42:42.361Z,12.33
2023-05-13T05:45:09.168Z,12.40
2023-05-13T05:47:38.104Z,12.53
2023-05-13T05:50:05.322Z,12.65
2023-05-13T05:52:31.848Z,12.83
2023-05-13T05:54:58.465Z,12.99
2023-05-13T05:57:24.820Z,13.14
2023-05-13T05:59:53.868Z,13.27
2023-05-13T06:02:20.237Z,13.25
2023-05-13T06:04:46.735Z,13.39
2023-05-13T06:07:13.457Z,13.61
2023-05-13T06:09:40.458Z,13.72
2023-05-13T06:12:11.396Z,13.71
2023-05-13T06:14:38.089Z,13.84
2023-05-13T06:17:07.199Z,13.87
2023-05-13T06:19:33.880Z,13.89
2023-05-13T06:22:02.593Z,13.88
2023-05-13T06:24:30.239Z,13.91
2023-05-13T06:26:56.590Z,13.84
2023-05-13T06:29:22.985Z,13.90
2023-05-13T06:31:54.365Z,13.78
2023-05-13T06:34:20.785Z,13.80
2023-05-13T06:36:47.284Z,13.75
2023-05-13T06:39:13.797Z,13.73
2023-05-13T06:41:40.833Z,13.70
2023-05-13T06:44:07.674Z,13.77
2023-05-13T06:46:34.252Z,13.73
2023-05-13T06:49:00.650Z,13.72
2023-05-13T06:51:27.784Z,13.93
2023-05-13T06:53:55.678Z,14.14
2023-05-13T06:56:23.091Z,14.38
2023-05-13T06:58:55.310Z,14.41
2023-05-13T07:01:21.817Z,14.48
2023-05-13T07:03:50.932Z,14.56
2023-05-13T07:06:19.958Z,14.76
2023-05-13T07:08:46.338Z,14.35
2023-05-13T07:11:12.691Z,14.34
2023-05-13T07:13:41.363Z,14.38
2023-05-13T07:16:07.752Z,14.46
2023-05-13T07:18:34.275Z,14.50
2023-05-13T07:21:00.866Z,14.64
2023-05-13T07:23:27.529Z,14.70
2023-05-13T07:25:57.065Z,14.59
2023-05-13T07:28:23.799Z,14.83
2023-05-13T07:30:53.718Z,14.90
2023-05-13T07:33:20.216Z,15.04
2023-05-13T07:35:49.395Z,15.28
2023-05-13T07:38:16.352Z,15.04
2023-05-13T07:40:42.707Z,15.08
2023-05-13T07:43:13.499Z,14.93
2023-05-13T07:45:40.207Z,15.32
2023-05-13T07:48:06.680Z,15.41
2023-05-13T07:50:33.135Z,15.24
2023-05-13T07:52:59.535Z,15.15
2023-05-13T07:55:26.228Z,15.16
2023-05-13T07:57:53.713Z,15.17
2023-05-13T08:00:20.354Z,15.24
2023-05-13T08:02:46.829Z,15.34
2023-05-13T08:05:13.502Z,15.32
2023-05-13T08:07:40.059Z,15.44
2023-05-13T08:10:06.929Z,15.33
2023-05-13T08:12:33.412Z,15.19
2023-05-13T08:15:03.872Z,15.23
2023-05-13T08:17:30.360Z,15.38
2023-05-13T08:19:56.865Z,15.53
2023-05-13T08:22:23.218Z,15.52
2023-05-13T08:24:49.741Z,15.52
2023-05-13T08:27:17.203Z,15.46
2023-05-13T08:29:45.092Z,15.59
2023-05-13T08:32:12.255Z,15.59
2023-05-13T08:34:40.117Z,15.78
2023-05-13T08:37:06.500Z,15.63
2023-05-13T08:39:32.865Z,15.78
2023-05-13T08:42:00.101Z,15.93
2023-05-13T08:44:29.206Z,16.23
2023-05-13T08:47:14.644Z,16.35
2023-05-13T08:49:44.506Z,16.93
2023-05-13T08:52:10.848Z,17.20
2023-05-13T08:54:38.628Z,17.42
2023-05-13T08:57:05.208Z,17.53
2023-05-13T08:59:34.173Z,17.49
2023-05-13T09:02:03.324Z,17.36
2023-05-13T09:04:30.012Z,17.29
2023-05-13T09:06:56.567Z,17.35
2023-05-13T09:09:23.309Z,17.34
2023-05-13T09:11:49.667Z,17.21
2023-05-13T09:16:47.727Z,16.91
2023-05-13T09:19:16.659Z,16.96
2023-05-13T09:21:44.268Z,17.08
2023-05-13T09:24:18.711Z,17.10
2023-05-13T09:26:46.194Z,17.22
2023-05-13T09:29:20.081Z,17.28
2023-05-13T09:31:48.928Z,17.41
2023-05-13T09:34:24.080Z,17.27
2023-05-13T09:37:05.160Z,17.62
2023-05-13T09:39:39.777Z,17.77
2023-05-13T09:42:14.567Z,17.42
2023-05-13T09:44:41.046Z,17.48
2023-05-13T09:47:11.235Z,17.50
2023-05-13T09:49:43.373Z,17.62
2023-05-13T09:52:12.593Z,17.58
2023-05-13T09:54:39.316Z,17.65
2023-05-13T09:57:06.383Z,17.66
2023-05-13T09:59:39.411Z,17.93
2023-05-13T10:02:07.893Z,17.98
2023-05-13T10:04:34.363Z,18.05
2023-05-13T10:07:04.050Z,18.18
2023-05-13T10:09:36.539Z,18.37
2023-05-13T10:12:08.560Z,18.67
2023-05-13T10:14:37.328Z,18.32
2023-05-13T10:17:07.187Z,18.49
2023-05-13T10:19:34.278Z,18.97
2023-05-13T10:22:04.200Z,19.16
2023-05-13T10:24:33.516Z,19.13
2023-05-13T10:27:01.748Z,19.34
2023-05-13T10:29:29.129Z,19.23
2023-05-13T10:31:56.009Z,19.03
2023-05-13T10:34:23.339Z,19.39
2023-05-13T10:36:55.934Z,19.43
2023-05-13T10:39:39.739Z,19.36
2023-05-13T10:42:53.729Z,19.54
2023-05-13T10:45:20.333Z,19.56
2023-05-13T10:47:50.634Z,19.43
2023-05-13T10:50:26.419Z,19.47
2023-05-13T10:52:58.090Z,19.21
2023-05-13T10:55:27.072Z,19.63
2023-05-13T10:58:15.503Z,19.64
2023-05-13T11:00:45.428Z,19.30
2023-05-13T11:03:31.087Z,19.74
2023-05-13T11:06:23.663Z,19.67
2023-05-13T11:08:55.945Z,20.02
2023-05-13T11:11:22.820Z,20.28
2023-05-13T11:14:08.848Z,19.72
2023-05-13T11:16:36.300Z,19.66
2023-05-13T11:19:04.290Z,20.30
2023-05-13T11:21:39.619Z,20.70
2023-05-13T11:24:08.790Z,20.92
2023-05-13T11:26:54.216Z,20.54
2023-05-13T11:29:30.789Z,20.61
2023-05-13T11:32:00.252Z,21.18
2023-05-13T11:34:27.554Z,20.94
2023-05-13T11:37:04.374Z,20.45
2023-05-13T11:39:33.372Z,19.69
2023-05-13T11:42:03.961Z,19.34
2023-05-13T11:44:34.172Z,19.09
2023-05-13T11:47:08.344Z,18.97
2023-05-13T11:49:46.384Z,19.09
2023-05-13T11:52:17.743Z,18.77
2023-05-13T11:54:48.554Z,18.91
2023-05-13T11:57:17.856Z,19.62
2023-05-13T11:59:58.126Z,19.99
2023-05-13T12:02:27.480Z,19.54
2023-05-13T12:04:54.732Z,20.03
2023-05-13T12:07:22.960Z,19.85
2023-05-13T12:09:50.243Z,20.14
2023-05-13T12:12:17.707Z,20.43
2023-05-13T12:14:46.257Z,20.71
2023-05-13T12:17:17.387Z,21.03
2023-05-13T12:20:16.210Z,20.45
2023-05-13T12:22:42.515Z,19.95
2023-05-13T12:25:47.802Z,19.66
2023-05-13T12:28:19.314Z,19.05
2023-05-13T12:31:00.794Z,18.79
2023-05-13T12:33:32.446Z,18.31
2023-05-13T12:36:26.105Z,18.41
2023-05-13T12:39:00.496Z,18.06
2023-05-13T12:41:32.551Z,17.84
2023-05-13T12:44:02.225Z,17.79
2023-05-13T12:46:29.046Z,17.34
2023-05-13T12:48:57.111Z,17.37
2023-05-13T12:51:24.250Z,17.35
2023-05-13T12:53:50.833Z,17.34
2023-05-13T12:56:17.343Z,17.35
2023-05-13T12:58:43.775Z,17.41
2023-05-13T13:01:10.213Z,17.77
2023-05-13T13:03:36.774Z,17.96
2023-05-13T13:06:03.348Z,18.04
2023-05-13T13:08:30.727Z,18.11
2023-05-13T13:10:59.259Z,18.01
2023-05-13T13:13:25.678Z,18.17
2023-05-13T13:15:54.440Z,18.33
2023-05-13T13:18:21.044Z,18.73
2023-05-13T13:20:47.535Z,19.17
2023-05-13T13:23:13.988Z,19.44
2023-05-13T13:25:40.814Z,19.45
2023-05-13T13:28:07.305Z,19.54
2023-05-13T13:30:33.762Z,19.88
2023-05-13T13:33:00.292Z,19.70
2023-05-13T13:35:26.905Z,19.59
2023-05-13T13:37:54.377Z,19.38
2023-05-13T13:40:21.065Z,19.64
2023-05-13T13:42:49.908Z,19.75
2023-05-13T13:45:16.530Z,19.86
2023-05-13T13:47:45.356Z,19.52
2023-05-13T13:50:11.949Z,19.58
2023-05-13T13:52:43.360Z,19.51
2023-05-13T13:55:12.418Z,19.61
2023-05-13T13:57:41.175Z,19.37
2023-05-13T14:00:08.138Z,19.19
2023-05-13T14:02:34.749Z,19.25
2023-05-13T14:05:01.366Z,19.02
2023-05-13T14:07:28.002Z,19.11
2023-05-13T14:09:54.551Z,18.95
2023-05-13T14:12:20.937Z,18.90
2023-05-13T14:14:47.328Z,18.96
2023-05-13T14:17:14.481Z,18.93
2023-05-13T14:19:40.914Z,18.91
2023-05-13T14:22:07.278Z,18.88
2023-05-13T14:24:33.679Z,18.73
2023-05-13T14:27:00.198Z,18.85
2023-05-13T14:29:27.678Z,18.69
2023-05-13T14:31:56.732Z,18.61
2023-05-13T14:34:27.737Z,18.53
2023-05-13T14:36:54.214Z,18.72
2023-05-13T14:39:20.634Z,19.04
2023-05-13T14:41:47.137Z,19.30
2023-05-13T14:44:13.937Z,19.27
2023-05-13T14:46:41.242Z,19.67
2023-05-13T14:49:08.501Z,19.53
2023-05-13T14:51:35.456Z,19.57
2023-05-13T14:54:02.712Z,19.57
2023-05-13T14:56:33.711Z,19.23
2023-05-13T14:59:02.188Z,19.04
2023-05-13T15:01:28.728Z,18.84
2023-05-13T15:03:55.731Z,18.54
2023-05-13T15:06:24.761Z,18.42
2023-05-13T15:08:51.166Z,18.39
2023-05-13T15:11:17.518Z,18.42
2023-05-13T15:13:43.897Z,18.42
2023-05-13T15:16:11.553Z,18.40
2023-05-13T15:18:40.887Z,18.46
2023-05-13T15:21:07.289Z,18.59
2023-05-13T15:23:33.821Z,18.84
2023-05-13T15:26:00.174Z,18.81
2023-05-13T15:28:26.531Z,18.84
2023-05-13T15:30:53.096Z,18.96
2023-05-13T15:33:19.567Z,19.00
2023-05-13T15:35:46.073Z,19.20
2023-05-13T15:38:12.559Z,19.25
2023-05-13T15:40:39.117Z,19.24
2023-05-13T15:43:05.562Z,19.14
2023-05-13T15:45:32.153Z,19.05
2023-05-13T15:47:58.540Z,18.98
2023-05-13T15:50:26.073Z,18.91
2023-05-13T15:52:57.688Z,18.84
2023-05-13T15:55:24.120Z,18.87
2023-05-13T15:57:50.806Z,18.58
2023-05-13T16:00:18.100Z,18.51
2023-05-13T16:02:44.645Z,18.38
2023-05-13T16:05:15.680Z,18.21
2023-05-13T16:07:42.521Z,18.14
2023-05-13T16:10:09.440Z,18.08
2023-05-13T16:12:36.155Z,18.06
2023-05-13T16:15:06.356Z,17.93
2023-05-13T16:17:33.176Z,17.95
2023-05-13T16:19:59.906Z,17.89
2023-05-13T16:22:38.242Z,17.75
2023-05-13T16:25:09.443Z,17.73
2023-05-13T16:27:36.818Z,17.74
2023-05-13T16:30:05.262Z,17.71
2023-05-13T16:32:33.151Z,17.71
2023-05-13T16:35:01.446Z,17.69
2023-05-13T16:37:28.372Z,17.63
2023-05-13T16:39:54.848Z,17.51
2023-05-13T16:42:21.237Z,17.45
2023-05-13T16:44:48.048Z,17.39
2023-05-13T16:47:14.567Z,17.30
2023-05-13T16:49:41.020Z,17.25
2023-05-13T16:52:07.696Z,17.21
2023-05-13T16:54:34.423Z,17.18
2023-05-13T16:57:00.981Z,17.17
2023-05-13T16:59:28.446Z,17.23
2023-05-13T17:01:59.450Z,17.25
2023-05-13T17:04:26.663Z,17.20
2023-05-13T17:06:57.561Z,17.17
2023-05-13T17:09:25.844Z,17.15
2023-05-13T17:11:52.187Z,17.03
2023-05-13T17:14:18.668Z,16.92
2023-05-13T17:16:47.515Z,16.84
2023-05-13T17:19:16.486Z,16.73
2023-05-13T17:21:45.145Z,16.71
2023-05-13T17:24:11.688Z,16.63
2023-05-13T17:26:40.901Z,16.57
2023-05-13T17:29:07.506Z,16.48
2023-05-13T17:31:34.038Z,16.42
2023-05-13T17:34:00.491Z,16.35
2023-05-13T17:36:26.887Z,16.38
2023-05-13T17:38:53.319Z,16.29
2023-05-13T17:41:19.791Z,16.34
2023-05-13T17:43:46.207Z,16.38
2023-05-13T17:46:12.645Z,16.39
2023-05-13T17:48:39.292Z,16.42
2023-05-13T17:51:05.970Z,16.39
2023-05-13T17:53:34.508Z,16.36
2023-05-13T17:56:01.476Z,16.32
2023-05-13T17:58:30.657Z,16.27
2023-05-13T18:00:57.171Z,16.15
2023-05-13T18:03:26.676Z,16.14
2023-05-13T18:05:55.804Z,16.10
2023-05-13T18:08:22.201Z,16.09
2023-05-13T18:10:48.719Z,16.11
2023-05-13T18:13:15.374Z,16.11
2023-05-13T18:15:41.879Z,16.14
2023-05-13T18:18:08.361Z,16.11
2023-05-13T18:20:34.885Z,16.09
2023-05-13T18:23:01.428Z,16.08
2023-05-13T18:25:27.861Z,16.03
2023-05-13T18:27:54.557Z,16.00
2023-05-13T18:30:21.317Z,16.01
2023-05-13T18:32:48.184Z,15.96
2023-05-13T18:35:16.103Z,15.93
2023-05-13T18:37:42.873Z,15.93
2023-05-13T18:40:09.984Z,15.87
2023-05-13T18:42:36.471Z,15.86
2023-05-13T18:45:02.889Z,15.83
2023-05-13T18:47:29.395Z,15.80
2023-05-13T18:49:55.914Z,15.79
2023-05-13T18:52:22.369Z,15.73
2023-05-13T18:54:51.133Z,15.74
2023-05-13T18:57:17.906Z,15.73
2023-05-13T18:59:46.649Z,15.69
2023-05-13T19:02:13.225Z,15.63
2023-05-13T19:04:40.529Z,15.57
2023-05-13T19:07:07.066Z,15.52
2023-05-13T19:09:36.325Z,15.38
2023-05-13T19:12:03.363Z,15.32
2023-05-13T19:14:29.777Z,15.24
2023-05-13T19:16:56.396Z,15.09
2023-05-13T19:19:24.330Z,15.06
2023-05-13T19:21:55.725Z,14.92
2023-05-13T19:24:22.193Z,14.84
2023-05-13T19:26:51.940Z,14.76
2023-05-13T19:29:18.597Z,14.73
2023-05-13T19:31:45.138Z,14.70
2023-05-13T19:34:11.958Z,14.65
2023-05-13T19:36:38.348Z,14.56
2023-05-13T19:39:04.769Z,14.55
2023-05-13T19:41:31.374Z,14.51
2023-05-13T19:43:57.735Z,14.51
2023-05-13T19:46:24.334Z,14.51
2023-05-13T19:48:50.754Z,14.43
2023-05-13T19:51:18.026Z,14.38
2023-05-13T19:53:44.411Z,14.31
2023-05-13T19:56:11.258Z,14.22
2023-05-13T19:58:37.950Z,14.16
2023-05-13T20:01:06.700Z,14.13
2023-05-13T20:03:35.752Z,14.14
2023-05-13T20:06:02.626Z,14.11
2023-05-13T20:08:33.068Z,14.09
2023-05-13T20:10:59.704Z,14.09
2023-05-13T20:13:26.058Z,14.15
2023-05-13T20:15:52.526Z,14.09
2023-05-13T20:18:19.282Z,14.12
2023-05-13T20:20:46.867Z,14.08
2023-05-13T20:23:15.653Z,14.05
2023-05-13T20:25:42.278Z,13.99
2023-05-13T20:28:08.659Z,14.01
2023-05-13T20:30:35.175Z,14.07
2023-05-13T20:33:02.004Z,14.02
2023-05-13T20:35:28.488Z,13.96
2023-05-13T20:37:58.449Z,13.91
2023-05-13T20:40:25.085Z,13.82
2023-05-13T20:42:52.421Z,13.73
2023-05-13T20:45:19.066Z,13.67
2023-05-13T20:47:45.754Z,13.59
2023-05-13T20:50:12.411Z,13.46
2023-05-13T20:52:41.501Z,13.38
2023-05-13T20:55:11.409Z,13.34
2023-05-13T20:57:40.499Z,13.22
2023-05-13T21:00:07.804Z,13.17
2023-05-13T21:02:34.256Z,13.13
2023-05-13T21:05:00.635Z,13.10
2023-05-13T21:07:27.042Z,13.06
2023-05-13T21:09:55.686Z,13.02
2023-05-13T21:12:25.654Z,12.96
2023-05-13T21:14:52.019Z,12.93
2023-05-13T21:17:24.591Z,12.88
2023-05-13T21:19:51.195Z,12.84
2023-05-13T21:22:17.869Z,12.81
2023-05-13T21:24:46.535Z,12.79
2023-05-13T21:27:12.981Z,12.76
2023-05-13T21:29:39.417Z,12.70
2023-05-13T21:32:06.598Z,12.67
2023-05-13T21:34:33.081Z,12.61
2023-05-13T21:36:59.429Z,12.57
2023-05-13T21:39:25.980Z,12.55
2023-05-13T21:41:52.313Z,12.50
2023-05-13T21:44:18.669Z,12.45
2023-05-13T21:46:45.124Z,12.43
2023-05-13T21:49:12.000Z,12.40
2023-05-13T21:51:38.558Z,12.36
2023-05-13T21:54:04.971Z,12.33
2023-05-13T21:56:31.327Z,12.30
2023-05-13T21:59:05.297Z,12.24
2023-05-13T22:01:31.643Z,12.19
2023-05-13T22:04:00.312Z,12.15
2023-05-13T22:06:26.804Z,12.10
2023-05-13T22:08:53.186Z,12.03
2023-05-13T22:11:19.575Z,12.00
2023-05-13T22:13:46.254Z,11.95
2023-05-13T22:16:14.343Z,11.95
2023-05-13T22:18:41.267Z,11.98
2023-05-13T22:21:07.804Z,11.99
2023-05-13T22:23:34.269Z,11.93
2023-05-13T22:26:00.734Z,11.90
2023-05-13T22:28:29.697Z,11.90
2023-05-13T22:30:58.544Z,11.88
2023-05-13T22:33:24.954Z,11.85
2023-05-13T22:35:51.480Z,11.86
2023-05-13T22:38:20.227Z,11.86
2023-05-13T22:40:46.636Z,11.87
2023-05-13T22:43:15.761Z,11.89
2023-05-13T22:45:42.184Z,11.87
2023-05-13T22:48:08.635Z,11.91
2023-05-13T22:50:35.607Z,11.96
2023-05-13T22:53:04.489Z,11.98
2023-05-13T22:55:30.901Z,11.97
2023-05-13T22:57:57.378Z,11.95
2023-05-13T23:00:24.157Z,11.96
2023-05-13T23:02:50.824Z,11.92
2023-05-13T23:05:17.509Z,11.93
2023-05-13T23:07:43.865Z,11.99
2023-05-13T23:10:10.658Z,11.98
2023-05-13T23:12:37.758Z,12.05
2023-05-13T23:15:04.988Z,12.13
2023-05-13T23:17:34.081Z,12.17
2023-05-13T23:20:00.853Z,12.23
2023-05-13T23:22:27.223Z,12.27
2023-05-13T23:24:53.607Z,12.32
2023-05-13T23:27:20.135Z,12.33
2023-05-13T23:29:46.587Z,12.41
2023-05-13T23:32:13.101Z,12.49
2023-05-13T23:34:39.689Z,12.56
2023-05-13T23:37:08.248Z,12.57
2023-05-13T23:39:34.627Z,12.59
2023-05-13T23:42:01.121Z,12.69
2023-05-13T23:44:27.727Z,12.76
2023-05-13T23:46:54.166Z,12.80
2023-05-13T23:49:20.962Z,12.89
2023-05-13T23:51:47.482Z,12.88
2023-05-13T23:54:16.617Z,12.93
2023-05-13T23:56:43.142Z,13.00
2023-05-13T23:59:09.493Z,13.02
